createdAt,value
2022-12-28T00:02:25.674Z,102158.13
2022-12-28T00:05:27.789Z,102172.00
2022-12-28T00:08:29.987Z,102167.47
2022-12-28T00:11:32.014Z,102173.16
2022-12-28T00:14:34.073Z,102172.59
2022-12-28T00:17:36.053Z,102180.53
2022-12-28T00:20:38.131Z,102176.69
2022-12-28T00:23:40.139Z,102177.91
2022-12-28T00:26:42.263Z,102183.09
2022-12-28T00:29:44.365Z,102180.03
2022-12-28T00:32:46.465Z,102184.31
2022-12-28T00:35:56.979Z,102191.16
2022-12-28T00:38:59.211Z,102187.88
2022-12-28T00:42:01.342Z,102165.16
2022-12-28T00:45:06.193Z,102193.00
2022-12-28T00:48:08.210Z,102172.28
2022-12-28T00:51:19.120Z,102167.56
2022-12-28T00:54:21.165Z,102175.94
2022-12-28T00:57:23.130Z,102174.63
2022-12-28T01:00:28.225Z,102165.13
2022-12-28T01:03:30.645Z,102173.69
2022-12-28T01:06:33.030Z,102170.13
2022-12-28T01:09:35.205Z,102150.66
2022-12-28T01:12:38.406Z,102162.72
2022-12-28T01:15:40.724Z,102175.84
2022-12-28T01:18:45.564Z,102174.56
2022-12-28T01:21:49.904Z,102172.44
2022-12-28T01:24:52.389Z,102168.69
2022-12-28T01:27:55.083Z,102163.19
2022-12-28T01:30:58.214Z,102167.44
2022-12-28T01:34:00.640Z,102164.88
2022-12-28T01:37:02.760Z,102154.00
2022-12-28T01:40:05.436Z,102155.03
2022-12-28T01:43:14.101Z,102147.06
2022-12-28T01:46:35.337Z,102170.19
2022-12-28T01:49:45.152Z,102176.03
2022-12-28T01:52:56.049Z,102162.97
2022-12-28T01:55:58.184Z,102176.31
2022-12-28T01:59:00.904Z,102166.53
2022-12-28T02:02:04.446Z,102180.72
2022-12-28T02:05:08.222Z,102180.97
2022-12-28T02:08:17.139Z,102188.69
2022-12-28T02:11:20.154Z,102191.97
2022-12-28T02:14:23.204Z,102187.53
2022-12-28T02:17:26.459Z,102190.09
2022-12-28T02:20:53.580Z,102188.28
2022-12-28T02:24:24.439Z,102205.47
2022-12-28T02:27:37.159Z,102207.03
2022-12-28T02:30:54.745Z,102215.56
2022-12-28T02:34:15.560Z,102198.66
2022-12-28T02:37:28.780Z,102216.00
2022-12-28T02:40:42.340Z,102209.47
2022-12-28T02:43:45.496Z,102218.28
2022-12-28T02:47:06.256Z,102193.69
2022-12-28T02:50:13.523Z,102207.03
2022-12-28T02:53:30.617Z,102225.09
2022-12-28T02:56:52.996Z,102214.75
2022-12-28T03:00:11.267Z,102221.44
2022-12-28T03:03:25.270Z,102213.88
2022-12-28T03:07:22.175Z,102216.44
2022-12-28T03:10:40.669Z,102224.25
2022-12-28T03:13:48.660Z,102231.31
2022-12-28T03:17:18.106Z,102234.31
2022-12-28T03:20:42.994Z,102214.56
2022-12-28T03:24:06.132Z,102217.13
2022-12-28T03:27:33.555Z,102234.72
2022-12-28T03:30:57.996Z,102214.13
2022-12-28T03:34:08.181Z,102212.97
2022-12-28T03:38:00.386Z,102241.25
2022-12-28T03:41:09.169Z,102241.09
2022-12-28T03:44:19.954Z,102246.22
2022-12-28T03:47:26.164Z,102244.81
2022-12-28T03:50:29.289Z,102238.34
2022-12-28T03:53:42.111Z,102249.91
2022-12-28T03:56:49.013Z,102256.97
2022-12-28T03:59:52.151Z,102266.06
2022-12-28T04:02:54.468Z,102259.81
2022-12-28T04:05:57.069Z,102268.59
2022-12-28T04:09:00.113Z,102274.00
2022-12-28T04:12:05.895Z,102273.69
2022-12-28T04:15:28.943Z,102262.59
2022-12-28T04:18:32.746Z,102273.53
2022-12-28T04:21:34.990Z,102270.16
2022-12-28T04:24:38.619Z,102286.44
2022-12-28T04:27:42.443Z,102286.59
2022-12-28T04:31:00.911Z,102281.31
2022-12-28T04:34:03.195Z,102291.47
2022-12-28T04:37:09.048Z,102295.13
2022-12-28T04:40:11.932Z,102299.34
2022-12-28T04:43:14.054Z,102314.16
2022-12-28T04:46:18.829Z,102302.06
2022-12-28T04:49:20.901Z,102305.22
2022-12-28T04:52:23.084Z,102311.06
2022-12-28T04:55:32.645Z,102303.84
2022-12-28T04:58:36.601Z,102324.38
2022-12-28T05:01:38.833Z,102327.50
2022-12-28T05:04:40.936Z,102324.47
2022-12-28T05:07:42.985Z,102332.56
2022-12-28T05:10:45.000Z,102326.69
2022-12-28T05:13:49.080Z,102342.78
2022-12-28T05:16:54.628Z,102338.53
2022-12-28T05:19:56.660Z,102326.59
2022-12-28T05:22:58.762Z,102335.56
2022-12-28T05:26:01.793Z,102329.59
2022-12-28T05:29:04.839Z,102341.25
2022-12-28T05:32:06.923Z,102353.72
2022-12-28T05:35:09.520Z,102334.09
2022-12-28T05:38:11.947Z,102339.13
2022-12-28T05:41:13.938Z,102353.63
2022-12-28T05:44:16.010Z,102355.63
2022-12-28T05:47:18.211Z,102355.06
2022-12-28T05:50:20.583Z,102342.94
2022-12-28T05:53:22.694Z,102335.69
2022-12-28T05:56:30.403Z,102360.75
2022-12-28T05:59:32.488Z,102353.16
2022-12-28T06:02:34.756Z,102366.56
2022-12-28T06:05:37.070Z,102360.31
2022-12-28T06:08:40.117Z,102351.22
2022-12-28T06:11:42.211Z,102351.69
2022-12-28T06:14:44.256Z,102369.44
2022-12-28T06:17:47.280Z,102376.44
2022-12-28T06:20:55.290Z,102369.19
2022-12-28T06:24:00.743Z,102375.66
2022-12-28T06:27:02.757Z,102372.50
2022-12-28T06:30:05.295Z,102369.78
2022-12-28T06:33:07.304Z,102382.50
2022-12-28T06:36:19.923Z,102386.66
2022-12-28T06:39:23.058Z,102382.38
2022-12-28T06:42:26.471Z,102390.66
2022-12-28T06:45:28.590Z,102385.47
2022-12-28T06:48:32.507Z,102398.31
2022-12-28T06:51:38.899Z,102382.28
2022-12-28T06:54:40.966Z,102392.94
2022-12-28T06:57:43.026Z,102387.91
2022-12-28T07:00:45.323Z,102390.84
2022-12-28T07:03:49.239Z,102396.03
2022-12-28T07:06:51.283Z,102408.22
2022-12-28T07:09:53.517Z,102419.69
2022-12-28T07:12:56.763Z,102419.19
2022-12-28T07:16:02.703Z,102411.53
2022-12-28T07:19:04.935Z,102422.97
2022-12-28T07:22:07.032Z,102396.66
2022-12-28T07:25:11.615Z,102393.84
2022-12-28T07:28:16.536Z,102410.59
2022-12-28T07:31:21.246Z,102394.88
2022-12-28T07:34:23.722Z,102420.41
2022-12-28T07:37:26.204Z,102412.47
2022-12-28T07:40:28.753Z,102407.16
2022-12-28T07:43:30.842Z,102418.19
2022-12-28T07:46:35.257Z,102423.44
2022-12-28T07:49:37.375Z,102395.75
2022-12-28T07:52:39.460Z,102409.25
2022-12-28T07:55:43.764Z,102417.09
2022-12-28T07:58:53.726Z,102416.69
2022-12-28T08:01:55.829Z,102407.41
2022-12-28T08:04:58.024Z,102413.69
2022-12-28T08:08:03.522Z,102413.25
2022-12-28T08:11:17.681Z,102396.31
2022-12-28T08:14:19.692Z,102416.69
2022-12-28T08:17:21.851Z,102415.22
2022-12-28T08:20:23.939Z,102423.13
2022-12-28T08:23:25.896Z,102420.72
2022-12-28T08:26:33.727Z,102398.69
2022-12-28T08:29:35.795Z,102420.09
2022-12-28T08:32:37.906Z,102415.69
2022-12-28T08:35:39.941Z,102412.97
2022-12-28T08:38:44.099Z,102412.53
2022-12-28T08:41:46.157Z,102399.41
2022-12-28T08:44:48.332Z,102391.44
2022-12-28T08:47:51.717Z,102397.84
2022-12-28T08:50:55.971Z,102406.81
2022-12-28T08:53:58.676Z,102398.16
2022-12-28T08:57:00.764Z,102396.53
2022-12-28T09:00:06.149Z,102394.56
2022-12-28T09:03:08.302Z,102391.44
2022-12-28T09:06:13.079Z,102397.41
2022-12-28T09:09:17.599Z,102387.56
2022-12-28T09:12:19.829Z,102380.78
2022-12-28T09:15:21.989Z,102389.16
2022-12-28T09:18:24.024Z,102378.34
2022-12-28T09:21:29.156Z,102366.13
2022-12-28T09:24:31.256Z,102386.63
2022-12-28T09:27:33.392Z,102382.66
2022-12-28T09:30:35.550Z,102396.34
2022-12-28T09:37:18.375Z,102381.94
2022-12-28T09:40:21.070Z,102352.00
2022-12-28T09:43:44.003Z,102374.88
2022-12-28T09:46:55.348Z,102372.28
2022-12-28T09:50:13.207Z,102380.91
2022-12-28T09:53:23.014Z,102373.03
2022-12-28T09:56:46.186Z,102363.84
2022-12-28T09:59:49.355Z,102367.22
2022-12-28T10:03:02.745Z,102356.47
2022-12-28T10:06:11.116Z,102363.66
2022-12-28T10:09:25.433Z,102363.75
2022-12-28T10:12:29.969Z,102356.94
2022-12-28T10:15:32.918Z,102354.84
2022-12-28T10:18:39.659Z,102364.63
2022-12-28T10:21:43.544Z,102354.31
2022-12-28T10:24:47.413Z,102368.34
2022-12-28T10:27:50.023Z,102375.69
2022-12-28T10:31:11.993Z,102367.22
2022-12-28T10:34:18.077Z,102372.75
2022-12-28T10:37:20.587Z,102357.03
2022-12-28T10:40:33.598Z,102350.91
2022-12-28T10:43:39.927Z,102336.47
2022-12-28T10:46:52.786Z,102349.94
2022-12-28T10:50:26.541Z,102343.81
2022-12-28T10:53:17.106Z,102348.91
2022-12-28T10:56:30.224Z,102340.03
2022-12-28T10:59:33.507Z,102320.28
2022-12-28T11:02:35.840Z,102322.16
2022-12-28T11:05:40.421Z,102324.69
2022-12-28T11:08:45.217Z,102329.88
2022-12-28T11:11:49.758Z,102317.44
2022-12-28T11:14:52.877Z,102328.28
2022-12-28T11:18:17.670Z,102315.44
2022-12-28T11:21:24.330Z,102320.69
2022-12-28T11:24:39.252Z,102311.97
2022-12-28T11:27:41.802Z,102305.78
2022-12-28T11:30:45.079Z,102317.41
2022-12-28T11:33:54.453Z,102314.16
2022-12-28T11:36:57.003Z,102301.19
2022-12-28T11:39:59.642Z,102300.66
2022-12-28T11:43:01.821Z,102297.78
2022-12-28T11:46:25.982Z,102308.22
2022-12-28T11:49:31.750Z,102314.13
2022-12-28T11:52:46.049Z,102307.97
2022-12-28T11:55:59.369Z,102308.63
2022-12-28T11:59:09.419Z,102289.84
2022-12-28T12:02:20.254Z,102305.13
2022-12-28T12:05:40.034Z,102301.16
2022-12-28T12:08:42.208Z,102292.97
2022-12-28T12:11:44.547Z,102306.00
2022-12-28T12:14:53.196Z,102304.06
2022-12-28T12:18:00.047Z,102300.78
2022-12-28T12:21:15.520Z,102302.34
2022-12-28T12:24:30.903Z,102294.94
2022-12-28T12:27:45.565Z,102307.22
2022-12-28T12:30:48.240Z,102289.16
2022-12-28T12:33:58.419Z,102290.94
2022-12-28T12:37:12.625Z,102290.41
2022-12-28T12:40:14.720Z,102293.63
2022-12-28T12:43:33.118Z,102301.88
2022-12-28T12:47:29.560Z,102297.44
2022-12-28T12:51:12.612Z,102282.88
2022-12-28T12:54:40.909Z,102288.78
2022-12-28T12:58:04.337Z,102282.84
2022-12-28T13:01:33.818Z,102285.59
2022-12-28T13:05:02.857Z,102284.69
2022-12-28T13:08:20.082Z,102270.97
2022-12-28T13:11:26.052Z,102283.38
2022-12-28T13:14:29.217Z,102274.94
2022-12-28T13:17:31.588Z,102282.75
2022-12-28T13:20:33.924Z,102277.13
2022-12-28T13:23:50.411Z,102277.78
2022-12-28T13:27:12.426Z,102284.78
2022-12-28T13:30:28.927Z,102287.78
2022-12-28T13:34:25.279Z,102287.72
2022-12-28T13:37:36.093Z,102280.03
2022-12-28T13:40:57.644Z,102289.66
2022-12-28T13:44:22.804Z,102263.94
2022-12-28T13:47:44.755Z,102277.66
2022-12-28T13:51:09.519Z,102271.84
2022-12-28T13:54:20.422Z,102284.78
2022-12-28T13:57:49.021Z,102282.16
2022-12-28T14:01:04.275Z,102291.03
2022-12-28T14:07:37.822Z,102293.28
2022-12-28T14:10:43.792Z,102286.91
2022-12-28T14:13:47.903Z,102303.47
2022-12-28T14:17:01.358Z,102296.66
2022-12-28T14:20:05.915Z,102302.78
2022-12-28T14:23:31.646Z,102285.41
2022-12-28T14:26:34.570Z,102295.78
2022-12-28T14:29:41.884Z,102291.75
2022-12-28T14:32:44.723Z,102313.22
2022-12-28T14:36:01.606Z,102294.47
2022-12-28T14:39:05.478Z,102287.72
2022-12-28T14:42:22.900Z,102294.03
2022-12-28T14:49:33.955Z,102310.72
2022-12-28T14:52:46.519Z,102290.34
2022-12-28T14:56:03.666Z,102299.44
2022-12-28T14:59:18.143Z,102298.13
2022-12-28T15:00:25.456Z,102288.97
2022-12-28T15:02:41.625Z,102298.28
2022-12-28T15:05:54.717Z,102289.75
2022-12-28T15:09:00.002Z,102294.13
2022-12-28T15:12:17.905Z,102284.59
2022-12-28T15:15:24.430Z,102294.25
2022-12-28T15:18:29.192Z,102293.03
2022-12-28T15:21:31.360Z,102286.59
2022-12-28T15:24:37.653Z,102288.09
2022-12-28T15:27:40.716Z,102270.63
2022-12-28T15:30:45.936Z,102296.63
2022-12-28T15:33:48.844Z,102297.31
2022-12-28T15:36:53.319Z,102269.44
2022-12-28T15:39:55.480Z,102294.38
2022-12-28T15:42:58.690Z,102288.88
2022-12-28T15:46:00.862Z,102283.72
2022-12-28T15:49:04.309Z,102276.94
2022-12-28T15:52:06.322Z,102291.28
2022-12-28T15:55:08.760Z,102296.97
2022-12-28T15:58:10.903Z,102294.41
2022-12-28T16:01:13.116Z,102292.47
2022-12-28T16:04:15.532Z,102291.00
2022-12-28T16:07:19.377Z,102281.63
2022-12-28T16:10:21.642Z,102298.34
2022-12-28T16:13:23.854Z,102279.94
2022-12-28T16:16:28.363Z,102285.34
2022-12-28T16:19:31.773Z,102292.16
2022-12-28T16:22:33.779Z,102290.25
2022-12-28T16:25:35.909Z,102296.56
2022-12-28T16:28:38.493Z,102290.03
2022-12-28T16:31:41.479Z,102289.66
2022-12-28T16:34:43.868Z,102272.22
2022-12-28T16:37:46.048Z,102275.00
2022-12-28T16:40:48.231Z,102277.19
2022-12-28T16:43:52.748Z,102280.91
2022-12-28T16:46:59.764Z,102286.50
2022-12-28T16:50:02.164Z,102263.03
2022-12-28T16:53:24.726Z,102271.00
2022-12-28T16:56:27.376Z,102268.28
2022-12-28T16:59:30.190Z,102263.69
2022-12-28T17:02:32.418Z,102267.09
2022-12-28T17:05:35.614Z,102278.47
2022-12-28T17:08:38.350Z,102272.19
2022-12-28T17:11:40.473Z,102279.22
2022-12-28T17:14:42.572Z,102277.53
2022-12-28T17:17:44.781Z,102259.63
2022-12-28T17:20:46.826Z,102259.16
2022-12-28T17:23:49.860Z,102260.25
2022-12-28T17:26:52.846Z,102251.69
2022-12-28T17:29:54.915Z,102260.78
2022-12-28T17:32:57.773Z,102251.13
2022-12-28T17:36:02.914Z,102269.63
2022-12-28T17:39:05.877Z,102257.44
2022-12-28T17:42:12.083Z,102256.66
2022-12-28T17:45:15.487Z,102262.66
2022-12-28T17:48:20.523Z,102259.50
2022-12-28T17:51:24.395Z,102231.31
2022-12-28T17:54:26.548Z,102236.22
2022-12-28T17:57:30.791Z,102240.03
2022-12-28T18:00:36.598Z,102233.81
2022-12-28T18:03:38.949Z,102229.22
2022-12-28T18:06:41.697Z,102212.38
2022-12-28T18:09:43.896Z,102219.47
2022-12-28T18:12:47.082Z,102206.16
2022-12-28T18:15:52.220Z,102227.72
2022-12-28T18:18:55.527Z,102220.16
2022-12-28T18:21:57.807Z,102228.25
2022-12-28T18:25:00.875Z,102229.00
2022-12-28T18:28:03.060Z,102223.22
2022-12-28T18:31:05.731Z,102223.09
2022-12-28T18:34:07.967Z,102236.50
2022-12-28T18:37:10.588Z,102232.72
2022-12-28T18:40:12.699Z,102229.19
2022-12-28T18:43:14.740Z,102239.75
2022-12-28T18:46:20.325Z,102230.94
2022-12-28T18:49:23.332Z,102228.22
2022-12-28T18:52:25.612Z,102219.19
2022-12-28T18:55:28.304Z,102223.25
2022-12-28T18:58:33.447Z,102245.00
2022-12-28T19:05:02.031Z,102234.59
2022-12-28T19:08:09.424Z,102234.59
2022-12-28T19:11:11.736Z,102234.75
2022-12-28T19:14:15.838Z,102226.25
2022-12-28T19:17:18.485Z,102219.31
2022-12-28T19:20:20.518Z,102223.06
2022-12-28T19:23:23.256Z,102218.84
2022-12-28T19:26:25.895Z,102217.03
2022-12-28T19:29:27.886Z,102209.56
2022-12-28T19:32:31.085Z,102190.50
2022-12-28T19:35:33.813Z,102223.16
2022-12-28T19:38:36.991Z,102221.47
2022-12-28T19:41:40.009Z,102189.75
2022-12-28T19:44:43.945Z,102189.25
2022-12-28T19:47:46.461Z,102210.53
2022-12-28T19:50:48.540Z,102212.38
2022-12-28T19:53:50.715Z,102203.72
2022-12-28T19:56:53.233Z,102193.13
2022-12-28T19:59:56.057Z,102195.25
2022-12-28T20:02:58.422Z,102196.72
2022-12-28T20:06:16.802Z,102188.13
2022-12-28T20:09:18.958Z,102181.19
2022-12-28T20:12:22.832Z,102186.44
2022-12-28T20:15:25.061Z,102183.00
2022-12-28T20:18:27.392Z,102175.66
2022-12-28T20:21:29.746Z,102173.66
2022-12-28T20:24:33.050Z,102157.78
2022-12-28T20:27:35.254Z,102156.53
2022-12-28T20:30:40.065Z,102161.19
2022-12-28T20:33:44.031Z,102167.94
2022-12-28T20:36:46.524Z,102161.44
2022-12-28T20:39:49.685Z,102159.66
2022-12-28T20:43:12.395Z,102157.47
2022-12-28T20:46:14.617Z,102165.75
2022-12-28T20:49:19.184Z,102167.44
2022-12-28T20:52:21.221Z,102148.66
2022-12-28T20:55:23.412Z,102167.16
2022-12-28T20:58:25.508Z,102148.25
2022-12-28T21:01:27.690Z,102151.94
2022-12-28T21:04:30.802Z,102156.91
2022-12-28T21:07:35.173Z,102154.38
2022-12-28T21:10:37.420Z,102155.81
2022-12-28T21:13:44.155Z,102133.75
2022-12-28T21:16:47.851Z,102130.03
2022-12-28T21:19:50.140Z,102129.38
2022-12-28T21:22:52.401Z,102123.53
2022-12-28T21:26:01.071Z,102121.47
2022-12-28T21:29:03.184Z,102114.31
2022-12-28T21:32:05.533Z,102124.81
2022-12-28T21:35:08.206Z,102128.59
2022-12-28T21:38:10.451Z,102130.63
2022-12-28T21:41:41.788Z,102117.31
2022-12-28T21:44:45.892Z,102135.06
2022-12-28T21:47:47.975Z,102125.22
2022-12-28T21:50:50.039Z,102112.06
2022-12-28T21:53:52.533Z,102115.38
2022-12-28T21:56:56.448Z,102107.28
2022-12-28T22:00:01.028Z,102100.44
2022-12-28T22:03:25.605Z,102094.25
2022-12-28T22:06:35.554Z,102086.31
2022-12-28T22:09:58.222Z,102087.84
2022-12-28T22:13:00.415Z,102091.41
2022-12-28T22:16:03.164Z,102081.50
2022-12-28T22:19:05.724Z,102068.06
2022-12-28T22:22:07.786Z,102067.50
2022-12-28T22:25:11.319Z,102075.78
2022-12-28T22:28:13.428Z,102079.91
2022-12-28T22:31:16.561Z,102065.88
2022-12-28T22:34:18.828Z,102064.88
2022-12-28T22:37:20.982Z,102079.22
2022-12-28T22:40:23.479Z,102075.00
2022-12-28T22:43:25.801Z,102073.28
2022-12-28T22:46:27.986Z,102069.75
2022-12-28T22:49:30.548Z,102075.59
2022-12-28T22:52:32.601Z,102065.91
2022-12-28T22:55:34.624Z,102055.69
2022-12-28T22:58:36.944Z,102054.28
2022-12-28T23:01:39.757Z,102057.97
2022-12-28T23:04:42.220Z,102051.88
2022-12-28T23:07:44.387Z,102043.06
2022-12-28T23:11:01.138Z,102056.13
2022-12-28T23:14:31.873Z,102051.63
2022-12-28T23:17:34.013Z,102051.59
2022-12-28T23:20:59.840Z,102047.75
2022-12-28T23:24:20.327Z,102023.06
2022-12-28T23:27:22.486Z,102035.41
2022-12-28T23:30:24.592Z,102023.78
2022-12-28T23:33:26.664Z,102026.31
2022-12-28T23:36:28.782Z,102031.53
2022-12-28T23:39:30.963Z,102017.91
2022-12-28T23:42:35.037Z,102018.91
2022-12-28T23:45:38.702Z,102031.56
2022-12-28T23:48:40.858Z,102029.41
2022-12-28T23:51:47.322Z,102017.44
2022-12-28T23:54:49.427Z,102019.75
2022-12-28T23:57:51.465Z,102010.97
